Terminal Aerodrome Forecast
Issued by NWS

Home | Current Version | Previous Version | Text Only | Print | Product List | Glossary On
Versions: 1 2 3 4 5 6 7 8 9 10 11 12 13 14 15 16
000
FTUS43 KJKL 270846 AAA
TAFSJS
TAF AMD
KSJS 270846Z 2709/2806 VRB03KT P6SM SCT250
      TEMPO 2709/2712 4SM BR
     FM271300 VRB03KT P6SM SCT200
     FM271700 VRB03KT P6SM VCTS BKN040CB BKN150=

USA.gov is the U.S. government's official web portal to all federal, state and local government web resources and services.